sensor_id;sensor_type;location;lat;lon;timestamp;temperature;humidity
44277;DHT22;29973;43.742;1.236;2024-02-16T00:02:01;12.50;99.90
44277;DHT22;29973;43.742;1.236;2024-02-16T00:04:27;12.60;99.90
44277;DHT22;29973;43.742;1.236;2024-02-16T00:06:53;12.60;99.90
44277;DHT22;29973;43.742;1.236;2024-02-16T00:09:18;12.50;99.90
44277;DHT22;29973;43.742;1.236;2024-02-16T00:11:44;12.60;99.90
44277;DHT22;29973;43.742;1.236;2024-02-16T00:14:10;12.60;99.90
44277;DHT22;29973;43.742;1.236;2024-02-16T00:16:36;12.60;99.90
44277;DHT22;29973;43.742;1.236;2024-02-16T00:19:01;12.50;99.90
44277;DHT22;29973;43.742;1.236;2024-02-16T00:21:27;12.40;99.90
44277;DHT22;29973;43.742;1.236;2024-02-16T00:23:54;12.50;99.90
44277;DHT22;29973;43.742;1.236;2024-02-16T00:26:19;12.40;99.90
44277;DHT22;29973;43.742;1.236;2024-02-16T00:28:46;12.50;99.90
44277;DHT22;29973;43.742;1.236;2024-02-16T00:31:12;12.40;99.90
44277;DHT22;29973;43.742;1.236;2024-02-16T00:33:38;12.50;99.90
44277;DHT22;29973;43.742;1.236;2024-02-16T00:36:03;12.50;99.90
44277;DHT22;29973;43.742;1.236;2024-02-16T00:38:29;12.50;99.90
44277;DHT22;29973;43.742;1.236;2024-02-16T00:40:55;12.60;99.90
44277;DHT22;29973;43.742;1.236;2024-02-16T00:43:20;12.50;99.90
44277;DHT22;29973;43.742;1.236;2024-02-16T00:45:46;12.50;99.90
44277;DHT22;29973;43.742;1.236;2024-02-16T00:48:13;12.60;99.90
44277;DHT22;29973;43.742;1.236;2024-02-16T00:50:39;12.40;99.90
44277;DHT22;29973;43.742;1.236;2024-02-16T00:53:07;12.40;99.90
44277;DHT22;29973;43.742;1.236;2024-02-16T00:55:33;12.50;99.90
44277;DHT22;29973;43.742;1.236;2024-02-16T00:57:59;12.50;99.90
44277;DHT22;29973;43.742;1.236;2024-02-16T01:00:24;12.60;99.90
44277;DHT22;29973;43.742;1.236;2024-02-16T01:02:51;12.70;99.90
44277;DHT22;29973;43.742;1.236;2024-02-16T01:05:18;12.60;99.90
44277;DHT22;29973;43.742;1.236;2024-02-16T01:07:44;12.70;99.90
44277;DHT22;29973;43.742;1.236;2024-02-16T01:10:10;12.60;99.90
44277;DHT22;29973;43.742;1.236;2024-02-16T01:12:37;12.60;99.90
44277;DHT22;29973;43.742;1.236;2024-02-16T01:15:03;12.60;99.90
44277;DHT22;29973;43.742;1.236;2024-02-16T01:17:29;12.60;99.90
44277;DHT22;29973;43.742;1.236;2024-02-16T01:19:55;12.50;99.90
44277;DHT22;29973;43.742;1.236;2024-02-16T01:22:22;12.50;99.90
44277;DHT22;29973;43.742;1.236;2024-02-16T01:24:48;12.50;99.90
44277;DHT22;29973;43.742;1.236;2024-02-16T01:27:15;12.40;99.90
44277;DHT22;29973;43.742;1.236;2024-02-16T01:29:41;12.40;99.90
44277;DHT22;29973;43.742;1.236;2024-02-16T01:32:07;12.30;99.90
44277;DHT22;29973;43.742;1.236;2024-02-16T01:34:32;12.30;99.90
44277;DHT22;29973;43.742;1.236;2024-02-16T01:36:58;12.40;99.90
44277;DHT22;29973;43.742;1.236;2024-02-16T01:39:24;12.30;99.90
44277;DHT22;29973;43.742;1.236;2024-02-16T01:41:50;12.30;99.90
44277;DHT22;29973;43.742;1.236;2024-02-16T01:44:16;12.40;99.90
44277;DHT22;29973;43.742;1.236;2024-02-16T01:46:42;12.40;99.90
44277;DHT22;29973;43.742;1.236;2024-02-16T01:49:09;12.40;99.90
44277;DHT22;29973;43.742;1.236;2024-02-16T01:51:36;12.40;99.90
44277;DHT22;29973;43.742;1.236;2024-02-16T01:54:02;12.50;99.90
44277;DHT22;29973;43.742;1.236;2024-02-16T01:56:29;12.40;99.90
44277;DHT22;29973;43.742;1.236;2024-02-16T01:58:55;12.40;99.90
44277;DHT22;29973;43.742;1.236;2024-02-16T02:01:20;12.40;99.90
44277;DHT22;29973;43.742;1.236;2024-02-16T02:03:46;12.40;99.90
44277;DHT22;29973;43.742;1.236;2024-02-16T02:06:12;12.30;99.90
44277;DHT22;29973;43.742;1.236;2024-02-16T02:08:37;12.40;99.90
44277;DHT22;29973;43.742;1.236;2024-02-16T02:11:03;12.30;99.90
44277;DHT22;29973;43.742;1.236;2024-02-16T02:13:29;12.20;99.90
44277;DHT22;29973;43.742;1.236;2024-02-16T02:15:56;12.10;99.90
44277;DHT22;29973;43.742;1.236;2024-02-16T02:18:22;12.00;99.90
44277;DHT22;29973;43.742;1.236;2024-02-16T02:20:48;11.90;99.90
44277;DHT22;29973;43.742;1.236;2024-02-16T02:23:13;11.90;99.90
44277;DHT22;29973;43.742;1.236;2024-02-16T02:25:39;11.80;99.90
44277;DHT22;29973;43.742;1.236;2024-02-16T02:28:06;11.80;99.90
44277;DHT22;29973;43.742;1.236;2024-02-16T02:30:31;11.80;99.90
44277;DHT22;29973;43.742;1.236;2024-02-16T02:32:57;11.80;99.90
44277;DHT22;29973;43.742;1.236;2024-02-16T02:35:23;11.90;99.90
44277;DHT22;29973;43.742;1.236;2024-02-16T02:37:48;11.80;99.90
44277;DHT22;29973;43.742;1.236;2024-02-16T02:40:14;11.60;99.90
44277;DHT22;29973;43.742;1.236;2024-02-16T02:42:41;11.60;99.90
44277;DHT22;29973;43.742;1.236;2024-02-16T02:45:07;11.50;99.90
44277;DHT22;29973;43.742;1.236;2024-02-16T02:47:33;11.60;99.90
44277;DHT22;29973;43.742;1.236;2024-02-16T02:49:58;11.50;99.90
44277;DHT22;29973;43.742;1.236;2024-02-16T02:52:24;11.40;99.90
44277;DHT22;29973;43.742;1.236;2024-02-16T02:54:50;11.40;99.90
44277;DHT22;29973;43.742;1.236;2024-02-16T02:57:16;11.40;99.90
44277;DHT22;29973;43.742;1.236;2024-02-16T02:59:41;11.40;99.90
44277;DHT22;29973;43.742;1.236;2024-02-16T03:02:07;11.40;99.90
44277;DHT22;29973;43.742;1.236;2024-02-16T03:04:34;11.40;99.90
44277;DHT22;29973;43.742;1.236;2024-02-16T03:07:00;11.40;99.90
44277;DHT22;29973;43.742;1.236;2024-02-16T03:09:26;11.40;99.90
44277;DHT22;29973;43.742;1.236;2024-02-16T03:11:51;11.40;99.90
44277;DHT22;29973;43.742;1.236;2024-02-16T03:14:18;11.40;99.90
44277;DHT22;29973;43.742;1.236;2024-02-16T03:16:44;11.40;99.90
44277;DHT22;29973;43.742;1.236;2024-02-16T03:19:09;11.30;99.90
44277;DHT22;29973;43.742;1.236;2024-02-16T03:21:35;11.30;99.90
44277;DHT22;29973;43.742;1.236;2024-02-16T03:24:02;11.30;99.90
44277;DHT22;29973;43.742;1.236;2024-02-16T03:26:27;11.40;99.90
44277;DHT22;29973;43.742;1.236;2024-02-16T03:28:53;11.30;99.90
44277;DHT22;29973;43.742;1.236;2024-02-16T03:31:23;11.30;99.90
44277;DHT22;29973;43.742;1.236;2024-02-16T03:33:50;11.30;99.90
44277;DHT22;29973;43.742;1.236;2024-02-16T03:36:18;11.30;99.90
44277;DHT22;29973;43.742;1.236;2024-02-16T03:38:48;11.30;99.90
44277;DHT22;29973;43.742;1.236;2024-02-16T03:41:22;11.30;99.90
44277;DHT22;29973;43.742;1.236;2024-02-16T03:43:49;11.30;99.90
44277;DHT22;29973;43.742;1.236;2024-02-16T03:46:15;11.30;99.90
44277;DHT22;29973;43.742;1.236;2024-02-16T03:48:41;11.30;99.90
44277;DHT22;29973;43.742;1.236;2024-02-16T03:51:07;11.30;99.90
44277;DHT22;29973;43.742;1.236;2024-02-16T03:53:32;11.30;99.90
44277;DHT22;29973;43.742;1.236;2024-02-16T03:55:58;11.30;99.90
44277;DHT22;29973;43.742;1.236;2024-02-16T03:58:24;11.30;99.90
44277;DHT22;29973;43.742;1.236;2024-02-16T04:00:50;11.50;99.90
44277;DHT22;29973;43.742;1.236;2024-02-16T04:03:18;11.50;99.90
44277;DHT22;29973;43.742;1.236;2024-02-16T04:05:44;11.40;99.90
44277;DHT22;29973;43.742;1.236;2024-02-16T04:08:10;11.50;99.90
44277;DHT22;29973;43.742;1.236;2024-02-16T04:10:36;11.50;99.90
44277;DHT22;29973;43.742;1.236;2024-02-16T04:13:02;11.50;99.90
44277;DHT22;29973;43.742;1.236;2024-02-16T04:15:28;11.50;99.90
44277;DHT22;29973;43.742;1.236;2024-02-16T04:17:53;11.40;99.90
44277;DHT22;29973;43.742;1.236;2024-02-16T04:20:19;11.50;99.90
44277;DHT22;29973;43.742;1.236;2024-02-16T04:22:45;11.50;99.90
44277;DHT22;29973;43.742;1.236;2024-02-16T04:25:11;11.50;99.90
44277;DHT22;29973;43.742;1.236;2024-02-16T04:27:37;11.50;99.90
44277;DHT22;29973;43.742;1.236;2024-02-16T04:30:04;11.50;99.90
44277;DHT22;29973;43.742;1.236;2024-02-16T04:32:32;11.50;99.90
44277;DHT22;29973;43.742;1.236;2024-02-16T04:34:58;11.50;99.90
44277;DHT22;29973;43.742;1.236;2024-02-16T04:37:25;11.50;99.90
44277;DHT22;29973;43.742;1.236;2024-02-16T04:39:51;11.60;99.90
44277;DHT22;29973;43.742;1.236;2024-02-16T04:42:17;11.60;99.90
44277;DHT22;29973;43.742;1.236;2024-02-16T04:44:43;11.60;99.90
44277;DHT22;29973;43.742;1.236;2024-02-16T04:47:09;11.50;99.90
44277;DHT22;29973;43.742;1.236;2024-02-16T04:49:35;11.60;99.90
44277;DHT22;29973;43.742;1.236;2024-02-16T04:52:02;11.50;99.90
44277;DHT22;29973;43.742;1.236;2024-02-16T04:54:28;11.50;99.90
44277;DHT22;29973;43.742;1.236;2024-02-16T04:56:54;11.60;99.90
44277;DHT22;29973;43.742;1.236;2024-02-16T04:59:19;11.50;99.90
44277;DHT22;29973;43.742;1.236;2024-02-16T05:01:46;11.50;99.90
44277;DHT22;29973;43.742;1.236;2024-02-16T05:04:12;11.50;99.90
44277;DHT22;29973;43.742;1.236;2024-02-16T05:06:45;11.50;99.90
44277;DHT22;29973;43.742;1.236;2024-02-16T05:09:12;11.50;99.90
44277;DHT22;29973;43.742;1.236;2024-02-16T05:11:42;11.60;99.90
44277;DHT22;29973;43.742;1.236;2024-02-16T05:14:08;11.60;99.90
44277;DHT22;29973;43.742;1.236;2024-02-16T05:16:33;11.60;99.90
44277;DHT22;29973;43.742;1.236;2024-02-16T05:18:59;11.50;99.90
44277;DHT22;29973;43.742;1.236;2024-02-16T05:21:25;11.50;99.90
44277;DHT22;29973;43.742;1.236;2024-02-16T05:23:50;11.60;99.90
44277;DHT22;29973;43.742;1.236;2024-02-16T05:26:16;11.50;99.90
44277;DHT22;29973;43.742;1.236;2024-02-16T05:28:42;11.60;99.90
44277;DHT22;29973;43.742;1.236;2024-02-16T05:31:15;11.50;99.90
44277;DHT22;29973;43.742;1.236;2024-02-16T05:33:50;11.50;99.90
44277;DHT22;29973;43.742;1.236;2024-02-16T05:36:17;11.50;99.90
44277;DHT22;29973;43.742;1.236;2024-02-16T05:38:48;11.50;99.90
44277;DHT22;29973;43.742;1.236;2024-02-16T05:41:15;11.40;99.90
44277;DHT22;29973;43.742;1.236;2024-02-16T05:43:42;11.50;99.90
44277;DHT22;29973;43.742;1.236;2024-02-16T05:46:15;11.50;99.90
44277;DHT22;29973;43.742;1.236;2024-02-16T05:48:41;11.50;99.90
44277;DHT22;29973;43.742;1.236;2024-02-16T05:51:08;11.50;99.90
44277;DHT22;29973;43.742;1.236;2024-02-16T05:53:34;11.50;99.90
44277;DHT22;29973;43.742;1.236;2024-02-16T05:56:01;11.50;99.90
44277;DHT22;29973;43.742;1.236;2024-02-16T05:58:27;11.60;99.90
44277;DHT22;29973;43.742;1.236;2024-02-16T06:00:54;11.50;99.90
44277;DHT22;29973;43.742;1.236;2024-02-16T06:03:20;11.60;99.90
44277;DHT22;29973;43.742;1.236;2024-02-16T06:05:46;11.50;99.90
44277;DHT22;29973;43.742;1.236;2024-02-16T06:08:12;11.50;99.90
44277;DHT22;29973;43.742;1.236;2024-02-16T06:10:38;11.50;99.90
44277;DHT22;29973;43.742;1.236;2024-02-16T06:13:04;11.50;99.90
44277;DHT22;29973;43.742;1.236;2024-02-16T06:15:30;11.50;99.90
44277;DHT22;29973;43.742;1.236;2024-02-16T06:17:56;11.50;99.90
44277;DHT22;29973;43.742;1.236;2024-02-16T06:20:22;11.50;99.90
44277;DHT22;29973;43.742;1.236;2024-02-16T06:22:48;11.50;99.90
44277;DHT22;29973;43.742;1.236;2024-02-16T06:25:14;11.50;99.90
44277;DHT22;29973;43.742;1.236;2024-02-16T06:27:40;11.50;99.90
44277;DHT22;29973;43.742;1.236;2024-02-16T06:30:07;11.40;99.90
44277;DHT22;29973;43.742;1.236;2024-02-16T06:32:35;11.50;99.90
44277;DHT22;29973;43.742;1.236;2024-02-16T06:35:01;11.50;99.90
44277;DHT22;29973;43.742;1.236;2024-02-16T06:37:26;11.60;99.90
44277;DHT22;29973;43.742;1.236;2024-02-16T06:39:52;11.50;99.90
44277;DHT22;29973;43.742;1.236;2024-02-16T06:42:18;11.50;99.90
44277;DHT22;29973;43.742;1.236;2024-02-16T06:44:43;11.60;99.90
44277;DHT22;29973;43.742;1.236;2024-02-16T06:47:09;11.60;99.90
44277;DHT22;29973;43.742;1.236;2024-02-16T06:49:35;11.60;99.90
44277;DHT22;29973;43.742;1.236;2024-02-16T06:52:00;11.50;99.90
44277;DHT22;29973;43.742;1.236;2024-02-16T06:54:26;11.50;99.90
44277;DHT22;29973;43.742;1.236;2024-02-16T06:56:52;11.60;99.90
44277;DHT22;29973;43.742;1.236;2024-02-16T06:59:18;11.50;99.90
44277;DHT22;29973;43.742;1.236;2024-02-16T07:01:43;11.50;99.90
44277;DHT22;29973;43.742;1.236;2024-02-16T07:04:09;11.50;99.90
44277;DHT22;29973;43.742;1.236;2024-02-16T07:06:35;11.50;99.90
44277;DHT22;29973;43.742;1.236;2024-02-16T07:09:01;11.50;99.90
44277;DHT22;29973;43.742;1.236;2024-02-16T07:11:28;11.50;99.90
44277;DHT22;29973;43.742;1.236;2024-02-16T07:13:54;11.50;99.90
44277;DHT22;29973;43.742;1.236;2024-02-16T07:16:19;11.50;99.90
44277;DHT22;29973;43.742;1.236;2024-02-16T07:18:45;11.50;99.90
44277;DHT22;29973;43.742;1.236;2024-02-16T07:21:11;11.60;99.90
44277;DHT22;29973;43.742;1.236;2024-02-16T07:23:37;11.60;99.90
44277;DHT22;29973;43.742;1.236;2024-02-16T07:26:03;11.60;99.90
44277;DHT22;29973;43.742;1.236;2024-02-16T07:28:29;11.70;99.90
44277;DHT22;29973;43.742;1.236;2024-02-16T07:30:56;11.70;99.90
44277;DHT22;29973;43.742;1.236;2024-02-16T07:33:21;11.80;99.90
44277;DHT22;29973;43.742;1.236;2024-02-16T07:35:49;11.70;99.90
44277;DHT22;29973;43.742;1.236;2024-02-16T07:38:16;11.80;99.90
44277;DHT22;29973;43.742;1.236;2024-02-16T07:40:41;11.90;99.90
44277;DHT22;29973;43.742;1.236;2024-02-16T07:43:07;11.90;99.90
44277;DHT22;29973;43.742;1.236;2024-02-16T07:45:33;11.90;99.90
44277;DHT22;29973;43.742;1.236;2024-02-16T07:47:59;11.90;99.90
44277;DHT22;29973;43.742;1.236;2024-02-16T07:50:28;12.00;99.90
44277;DHT22;29973;43.742;1.236;2024-02-16T07:52:54;12.00;99.90
44277;DHT22;29973;43.742;1.236;2024-02-16T07:55:19;12.00;99.90
44277;DHT22;29973;43.742;1.236;2024-02-16T07:57:46;12.00;99.90
44277;DHT22;29973;43.742;1.236;2024-02-16T08:00:12;12.10;99.90
44277;DHT22;29973;43.742;1.236;2024-02-16T08:02:38;12.10;99.90
44277;DHT22;29973;43.742;1.236;2024-02-16T08:05:11;12.10;99.90
44277;DHT22;29973;43.742;1.236;2024-02-16T08:07:41;12.20;99.90
44277;DHT22;29973;43.742;1.236;2024-02-16T08:10:08;12.20;99.90
44277;DHT22;29973;43.742;1.236;2024-02-16T08:12:34;12.30;99.90
44277;DHT22;29973;43.742;1.236;2024-02-16T08:15:03;12.20;99.90
44277;DHT22;29973;43.742;1.236;2024-02-16T08:17:35;12.40;99.90
44277;DHT22;29973;43.742;1.236;2024-02-16T08:20:01;12.40;99.90
44277;DHT22;29973;43.742;1.236;2024-02-16T08:22:27;12.50;99.90
44277;DHT22;29973;43.742;1.236;2024-02-16T08:24:53;12.50;99.90
44277;DHT22;29973;43.742;1.236;2024-02-16T08:27:19;12.40;99.90
44277;DHT22;29973;43.742;1.236;2024-02-16T08:29:45;12.60;99.90
44277;DHT22;29973;43.742;1.236;2024-02-16T08:32:10;12.60;99.90
44277;DHT22;29973;43.742;1.236;2024-02-16T08:34:37;12.60;99.90
44277;DHT22;29973;43.742;1.236;2024-02-16T08:37:03;12.70;99.90
44277;DHT22;29973;43.742;1.236;2024-02-16T08:39:29;12.50;99.90
44277;DHT22;29973;43.742;1.236;2024-02-16T08:41:56;12.60;99.90
44277;DHT22;29973;43.742;1.236;2024-02-16T08:44:22;12.50;99.90
44277;DHT22;29973;43.742;1.236;2024-02-16T08:46:47;12.70;99.90
44277;DHT22;29973;43.742;1.236;2024-02-16T08:49:15;12.70;99.90
44277;DHT22;29973;43.742;1.236;2024-02-16T08:51:40;12.60;99.90
44277;DHT22;29973;43.742;1.236;2024-02-16T08:54:06;12.70;99.90
44277;DHT22;29973;43.742;1.236;2024-02-16T08:56:32;12.50;99.90
44277;DHT22;29973;43.742;1.236;2024-02-16T08:59:03;12.90;99.90
44277;DHT22;29973;43.742;1.236;2024-02-16T09:01:33;12.80;99.90
44277;DHT22;29973;43.742;1.236;2024-02-16T09:03:59;12.80;99.90
44277;DHT22;29973;43.742;1.236;2024-02-16T09:06:26;13.00;99.90
44277;DHT22;29973;43.742;1.236;2024-02-16T09:08:52;13.00;99.90
44277;DHT22;29973;43.742;1.236;2024-02-16T09:11:18;12.90;99.90
44277;DHT22;29973;43.742;1.236;2024-02-16T09:13:43;13.10;99.90
44277;DHT22;29973;43.742;1.236;2024-02-16T09:16:09;13.40;99.90
44277;DHT22;29973;43.742;1.236;2024-02-16T09:18:35;13.50;99.90
44277;DHT22;29973;43.742;1.236;2024-02-16T09:21:03;13.30;99.90
44277;DHT22;29973;43.742;1.236;2024-02-16T09:23:31;12.90;99.90
44277;DHT22;29973;43.742;1.236;2024-02-16T09:25:57;13.10;99.90
44277;DHT22;29973;43.742;1.236;2024-02-16T09:28:24;13.00;99.90
44277;DHT22;29973;43.742;1.236;2024-02-16T09:30:50;13.50;99.90
44277;DHT22;29973;43.742;1.236;2024-02-16T09:33:16;13.40;99.90
44277;DHT22;29973;43.742;1.236;2024-02-16T09:35:41;13.20;99.90
44277;DHT22;29973;43.742;1.236;2024-02-16T09:38:07;13.50;99.90
44277;DHT22;29973;43.742;1.236;2024-02-16T09:40:36;12.90;99.90
44277;DHT22;29973;43.742;1.236;2024-02-16T09:43:02;13.30;99.90
44277;DHT22;29973;43.742;1.236;2024-02-16T09:45:29;13.30;99.90
44277;DHT22;29973;43.742;1.236;2024-02-16T09:47:55;13.10;99.90
44277;DHT22;29973;43.742;1.236;2024-02-16T09:50:22;13.00;99.90
44277;DHT22;29973;43.742;1.236;2024-02-16T09:52:50;12.90;99.90
44277;DHT22;29973;43.742;1.236;2024-02-16T09:55:17;13.10;99.90
44277;DHT22;29973;43.742;1.236;2024-02-16T09:57:43;12.60;99.90
44277;DHT22;29973;43.742;1.236;2024-02-16T10:00:10;13.00;99.90
44277;DHT22;29973;43.742;1.236;2024-02-16T10:02:43;13.20;99.90
44277;DHT22;29973;43.742;1.236;2024-02-16T10:05:17;13.30;99.90
44277;DHT22;29973;43.742;1.236;2024-02-16T10:07:43;13.20;99.90
44277;DHT22;29973;43.742;1.236;2024-02-16T10:10:26;13.20;99.90
44277;DHT22;29973;43.742;1.236;2024-02-16T10:13:06;13.40;99.90
44277;DHT22;29973;43.742;1.236;2024-02-16T10:15:32;13.30;99.90
44277;DHT22;29973;43.742;1.236;2024-02-16T10:18:02;13.20;99.90
44277;DHT22;29973;43.742;1.236;2024-02-16T10:20:29;12.60;99.90
44277;DHT22;29973;43.742;1.236;2024-02-16T10:25:34;12.20;99.90
44277;DHT22;29973;43.742;1.236;2024-02-16T10:28:04;12.10;99.90
44277;DHT22;29973;43.742;1.236;2024-02-16T10:30:30;11.90;99.90
44277;DHT22;29973;43.742;1.236;2024-02-16T10:32:59;12.10;99.90
44277;DHT22;29973;43.742;1.236;2024-02-16T10:35:25;12.00;99.90
44277;DHT22;29973;43.742;1.236;2024-02-16T10:37:52;12.00;99.90
44277;DHT22;29973;43.742;1.236;2024-02-16T10:40:19;12.00;99.90
44277;DHT22;29973;43.742;1.236;2024-02-16T10:42:46;11.90;99.90
44277;DHT22;29973;43.742;1.236;2024-02-16T10:45:14;11.80;99.90
44277;DHT22;29973;43.742;1.236;2024-02-16T10:47:40;12.10;99.90
44277;DHT22;29973;43.742;1.236;2024-02-16T10:50:06;12.20;99.90
44277;DHT22;29973;43.742;1.236;2024-02-16T10:52:33;12.30;99.90
44277;DHT22;29973;43.742;1.236;2024-02-16T10:55:00;12.10;99.90
44277;DHT22;29973;43.742;1.236;2024-02-16T10:57:27;12.50;99.90
44277;DHT22;29973;43.742;1.236;2024-02-16T10:59:53;12.60;99.90
44277;DHT22;29973;43.742;1.236;2024-02-16T11:02:20;12.60;99.90
44277;DHT22;29973;43.742;1.236;2024-02-16T11:04:47;12.70;99.90
44277;DHT22;29973;43.742;1.236;2024-02-16T11:07:16;12.50;99.90
44277;DHT22;29973;43.742;1.236;2024-02-16T11:09:43;12.80;99.90
44277;DHT22;29973;43.742;1.236;2024-02-16T11:12:14;12.50;99.90
44277;DHT22;29973;43.742;1.236;2024-02-16T11:14:45;12.80;99.90
44277;DHT22;29973;43.742;1.236;2024-02-16T11:17:16;12.80;99.90
44277;DHT22;29973;43.742;1.236;2024-02-16T11:19:46;12.60;99.90
44277;DHT22;29973;43.742;1.236;2024-02-16T11:22:18;12.60;99.90
44277;DHT22;29973;43.742;1.236;2024-02-16T11:24:45;12.70;99.90
44277;DHT22;29973;43.742;1.236;2024-02-16T11:27:12;12.80;99.90
44277;DHT22;29973;43.742;1.236;2024-02-16T11:29:38;13.00;99.90
44277;DHT22;29973;43.742;1.236;2024-02-16T11:32:06;12.70;99.90
44277;DHT22;29973;43.742;1.236;2024-02-16T11:34:32;12.80;99.90
44277;DHT22;29973;43.742;1.236;2024-02-16T11:37:00;12.90;99.90
44277;DHT22;29973;43.742;1.236;2024-02-16T11:39:26;12.60;99.90
44277;DHT22;29973;43.742;1.236;2024-02-16T11:42:03;12.50;99.90
44277;DHT22;29973;43.742;1.236;2024-02-16T11:44:31;12.80;99.90
44277;DHT22;29973;43.742;1.236;2024-02-16T11:47:01;13.10;99.90
44277;DHT22;29973;43.742;1.236;2024-02-16T11:49:29;12.90;99.90
44277;DHT22;29973;43.742;1.236;2024-02-16T11:51:55;12.80;99.90
44277;DHT22;29973;43.742;1.236;2024-02-16T11:54:22;13.10;99.90
44277;DHT22;29973;43.742;1.236;2024-02-16T11:56:48;13.20;99.90
44277;DHT22;29973;43.742;1.236;2024-02-16T11:59:18;13.00;99.90
44277;DHT22;29973;43.742;1.236;2024-02-16T12:01:58;12.80;99.90
44277;DHT22;29973;43.742;1.236;2024-02-16T12:04:28;12.60;99.90
44277;DHT22;29973;43.742;1.236;2024-02-16T12:07:00;13.10;99.90
44277;DHT22;29973;43.742;1.236;2024-02-16T12:09:26;13.20;99.90
44277;DHT22;29973;43.742;1.236;2024-02-16T12:11:53;13.20;99.90
44277;DHT22;29973;43.742;1.236;2024-02-16T12:14:21;13.60;99.90
44277;DHT22;29973;43.742;1.236;2024-02-16T12:16:48;13.60;99.90
44277;DHT22;29973;43.742;1.236;2024-02-16T12:19:15;13.60;99.90
44277;DHT22;29973;43.742;1.236;2024-02-16T12:21:41;14.00;99.90
44277;DHT22;29973;43.742;1.236;2024-02-16T12:24:07;13.40;99.90
44277;DHT22;29973;43.742;1.236;2024-02-16T12:26:33;13.50;99.90
44277;DHT22;29973;43.742;1.236;2024-02-16T12:28:58;13.90;99.90
44277;DHT22;29973;43.742;1.236;2024-02-16T12:31:24;14.30;99.90
44277;DHT22;29973;43.742;1.236;2024-02-16T12:33:51;14.30;99.90
44277;DHT22;29973;43.742;1.236;2024-02-16T12:36:17;14.20;99.90
44277;DHT22;29973;43.742;1.236;2024-02-16T12:38:43;14.40;99.90
44277;DHT22;29973;43.742;1.236;2024-02-16T12:41:09;13.90;99.90
44277;DHT22;29973;43.742;1.236;2024-02-16T12:43:35;14.30;99.90
44277;DHT22;29973;43.742;1.236;2024-02-16T12:46:00;14.10;99.90
44277;DHT22;29973;43.742;1.236;2024-02-16T12:48:29;14.30;99.90
44277;DHT22;29973;43.742;1.236;2024-02-16T12:50:55;14.20;99.90
44277;DHT22;29973;43.742;1.236;2024-02-16T12:53:20;14.30;99.90
44277;DHT22;29973;43.742;1.236;2024-02-16T12:55:50;14.40;99.90
44277;DHT22;29973;43.742;1.236;2024-02-16T12:58:16;14.20;99.90
44277;DHT22;29973;43.742;1.236;2024-02-16T13:00:41;14.40;99.90
44277;DHT22;29973;43.742;1.236;2024-02-16T13:03:07;14.30;99.90
44277;DHT22;29973;43.742;1.236;2024-02-16T13:05:33;14.30;99.90
44277;DHT22;29973;43.742;1.236;2024-02-16T13:07:59;14.30;99.90
44277;DHT22;29973;43.742;1.236;2024-02-16T13:10:25;14.00;99.90
44277;DHT22;29973;43.742;1.236;2024-02-16T13:12:51;14.30;99.90
44277;DHT22;29973;43.742;1.236;2024-02-16T13:15:16;14.40;99.90
44277;DHT22;29973;43.742;1.236;2024-02-16T13:17:42;14.50;99.90
44277;DHT22;29973;43.742;1.236;2024-02-16T13:20:08;14.70;99.90
44277;DHT22;29973;43.742;1.236;2024-02-16T13:22:38;14.00;99.90
44277;DHT22;29973;43.742;1.236;2024-02-16T13:25:04;14.00;99.90
44277;DHT22;29973;43.742;1.236;2024-02-16T13:27:31;13.80;99.90
44277;DHT22;29973;43.742;1.236;2024-02-16T13:29:57;14.10;99.90
44277;DHT22;29973;43.742;1.236;2024-02-16T13:32:23;14.30;99.90
44277;DHT22;29973;43.742;1.236;2024-02-16T13:34:48;14.40;99.90
44277;DHT22;29973;43.742;1.236;2024-02-16T13:37:14;13.90;99.90
44277;DHT22;29973;43.742;1.236;2024-02-16T13:39:40;14.00;99.90
44277;DHT22;29973;43.742;1.236;2024-02-16T13:42:06;13.60;99.90
44277;DHT22;29973;43.742;1.236;2024-02-16T13:44:32;14.00;99.90
44277;DHT22;29973;43.742;1.236;2024-02-16T13:46:57;14.00;99.90
44277;DHT22;29973;43.742;1.236;2024-02-16T13:49:23;13.60;99.90
44277;DHT22;29973;43.742;1.236;2024-02-16T13:51:49;13.80;99.90
44277;DHT22;29973;43.742;1.236;2024-02-16T13:54:14;13.50;99.90
44277;DHT22;29973;43.742;1.236;2024-02-16T13:56:40;13.60;99.90
44277;DHT22;29973;43.742;1.236;2024-02-16T13:59:06;13.60;99.90
44277;DHT22;29973;43.742;1.236;2024-02-16T14:01:34;13.50;99.90
44277;DHT22;29973;43.742;1.236;2024-02-16T14:04:01;13.30;99.90
44277;DHT22;29973;43.742;1.236;2024-02-16T14:06:27;12.90;99.90
44277;DHT22;29973;43.742;1.236;2024-02-16T14:08:53;12.90;99.90
44277;DHT22;29973;43.742;1.236;2024-02-16T14:11:19;13.00;99.90
44277;DHT22;29973;43.742;1.236;2024-02-16T14:13:45;13.20;99.90
44277;DHT22;29973;43.742;1.236;2024-02-16T14:16:11;12.90;99.90
44277;DHT22;29973;43.742;1.236;2024-02-16T14:18:37;13.20;99.90
44277;DHT22;29973;43.742;1.236;2024-02-16T14:21:03;13.30;99.90
44277;DHT22;29973;43.742;1.236;2024-02-16T14:23:29;13.10;99.90
44277;DHT22;29973;43.742;1.236;2024-02-16T14:25:55;13.10;99.90
44277;DHT22;29973;43.742;1.236;2024-02-16T14:28:21;12.90;99.90
44277;DHT22;29973;43.742;1.236;2024-02-16T14:30:47;12.80;99.90
44277;DHT22;29973;43.742;1.236;2024-02-16T14:33:12;12.80;99.90
44277;DHT22;29973;43.742;1.236;2024-02-16T14:35:38;12.50;99.90
44277;DHT22;29973;43.742;1.236;2024-02-16T14:38:04;12.40;99.90
44277;DHT22;29973;43.742;1.236;2024-02-16T14:40:31;12.20;99.90
44277;DHT22;29973;43.742;1.236;2024-02-16T14:42:56;12.00;99.90
44277;DHT22;29973;43.742;1.236;2024-02-16T14:45:22;12.10;99.90
44277;DHT22;29973;43.742;1.236;2024-02-16T14:47:48;12.00;99.90
44277;DHT22;29973;43.742;1.236;2024-02-16T14:50:14;11.80;99.90
44277;DHT22;29973;43.742;1.236;2024-02-16T14:52:40;11.90;99.90
44277;DHT22;29973;43.742;1.236;2024-02-16T14:55:07;11.90;99.90
44277;DHT22;29973;43.742;1.236;2024-02-16T14:57:39;11.90;99.90
44277;DHT22;29973;43.742;1.236;2024-02-16T15:00:10;11.70;99.90
44277;DHT22;29973;43.742;1.236;2024-02-16T15:02:37;11.80;99.90
44277;DHT22;29973;43.742;1.236;2024-02-16T15:05:04;11.80;99.90
44277;DHT22;29973;43.742;1.236;2024-02-16T15:07:30;11.80;99.90
44277;DHT22;29973;43.742;1.236;2024-02-16T15:09:56;11.70;99.90
44277;DHT22;29973;43.742;1.236;2024-02-16T15:12:22;11.50;99.90
44277;DHT22;29973;43.742;1.236;2024-02-16T15:14:49;11.50;99.90
44277;DHT22;29973;43.742;1.236;2024-02-16T15:17:15;11.50;99.90
44277;DHT22;29973;43.742;1.236;2024-02-16T15:19:41;11.40;99.90
44277;DHT22;29973;43.742;1.236;2024-02-16T15:22:07;11.50;99.90
44277;DHT22;29973;43.742;1.236;2024-02-16T15:24:34;11.40;99.90
44277;DHT22;29973;43.742;1.236;2024-02-16T15:26:59;11.40;99.90
44277;DHT22;29973;43.742;1.236;2024-02-16T15:29:27;11.40;99.90